createdAt,value
2023-04-12T11:48:20.022Z,979.00
2023-04-12T11:49:20.010Z,965.00
2023-04-12T11:50:19.998Z,960.00
2023-04-12T11:51:19.997Z,960.00
2023-04-12T11:52:20.040Z,958.00
2023-04-12T11:53:19.981Z,954.00
2023-04-12T11:54:20.032Z,949.00
2023-04-12T11:55:20.016Z,939.00
2023-04-12T11:56:19.970Z,939.00
2023-04-12T11:57:19.955Z,939.00
2023-04-12T11:58:19.937Z,940.00
2023-04-12T11:59:19.964Z,939.00
2023-04-12T12:00:19.918Z,936.00
2023-04-12T12:01:19.922Z,935.00
2023-04-12T12:02:23.497Z,931.00
2023-04-12T12:03:20.043Z,928.00
2023-04-12T12:04:20.166Z,924.00
2023-04-12T12:05:20.436Z,922.00
2023-04-12T12:06:20.008Z,921.00
2023-04-12T12:07:20.361Z,917.00
2023-04-12T12:08:19.886Z,912.00
2023-04-12T12:09:19.879Z,908.00
2023-04-12T12:10:37.873Z,907.00
2023-04-12T12:11:20.853Z,901.00
2023-04-12T12:12:19.897Z,893.00
2023-04-12T12:13:19.827Z,879.00
2023-04-12T12:14:19.837Z,871.00
2023-04-12T12:15:19.848Z,864.00
2023-04-12T12:16:19.874Z,856.00
2023-04-12T12:17:19.864Z,847.00
2023-04-12T12:18:19.828Z,847.00
2023-04-12T12:19:19.820Z,842.00
2023-04-12T12:20:19.784Z,834.00
2023-04-12T12:21:19.789Z,828.00
2023-04-12T12:22:19.784Z,824.00
2023-04-12T12:23:19.792Z,815.00
2023-04-12T12:24:19.782Z,804.00
2023-04-12T12:25:19.802Z,793.00
2023-04-12T12:26:19.744Z,787.00
2023-04-12T12:27:19.847Z,779.00
2023-04-12T12:28:19.806Z,769.00
2023-04-12T12:29:19.752Z,762.00
2023-04-12T12:30:19.805Z,753.00
2023-04-12T12:31:19.759Z,745.00
2023-04-12T12:32:19.792Z,740.00
2023-04-12T12:33:19.789Z,739.00
2023-04-12T12:34:19.825Z,743.00
2023-04-12T12:35:19.772Z,759.00
2023-04-12T12:36:19.782Z,788.00
2023-04-12T12:37:19.825Z,848.00
2023-04-12T12:38:19.843Z,879.00
2023-04-12T12:39:19.848Z,892.00
2023-04-12T12:40:19.811Z,881.00
2023-04-12T12:41:19.876Z,894.00
2023-04-12T12:42:19.842Z,901.00
2023-04-12T12:43:19.817Z,908.00
2023-04-12T12:44:19.827Z,907.00
2023-04-12T12:45:19.812Z,912.00
2023-04-12T12:46:19.869Z,943.00
2023-04-12T12:47:19.844Z,960.00
2023-04-12T12:48:19.960Z,969.00
2023-04-12T12:49:19.837Z,975.00
2023-04-12T12:50:21.084Z,977.00
2023-04-12T12:51:19.843Z,988.00
2023-04-12T12:52:19.822Z,1001.00
2023-04-12T12:53:20.966Z,1008.00
2023-04-12T12:54:36.065Z,1003.00
2023-04-12T12:55:20.846Z,993.00
2023-04-12T12:56:19.767Z,971.00
2023-04-12T12:57:19.799Z,959.00
2023-04-12T12:58:19.785Z,948.00
2023-04-12T12:59:19.742Z,885.00
2023-04-12T13:00:19.746Z,873.00
2023-04-12T13:01:19.805Z,903.00
2023-04-12T13:02:19.914Z,929.00
2023-04-12T13:03:20.070Z,925.00
2023-04-12T13:04:19.762Z,927.00
2023-04-12T13:05:19.749Z,934.00
2023-04-12T13:06:19.719Z,949.00
2023-04-12T13:07:19.687Z,1009.00
2023-04-12T13:08:19.678Z,1025.00
2023-04-12T13:09:19.685Z,1154.00
2023-04-12T13:10:19.750Z,1117.00
2023-04-12T13:11:19.788Z,1089.00
2023-04-12T13:12:19.881Z,1091.00
2023-04-12T13:13:19.904Z,1101.00
2023-04-12T13:14:19.973Z,1114.00
2023-04-12T13:15:23.805Z,1130.00
2023-04-12T13:16:20.060Z,1141.00
2023-04-12T13:17:20.070Z,1161.00
2023-04-12T13:18:20.011Z,1176.00
2023-04-12T13:19:20.002Z,1185.00
2023-04-12T13:20:19.984Z,1207.00
2023-04-12T13:21:19.974Z,1245.00
2023-04-12T13:22:19.981Z,1250.00
2023-04-12T13:23:19.986Z,1257.00
2023-04-12T13:24:19.966Z,1266.00
2023-04-12T13:25:19.946Z,1304.00
2023-04-12T13:26:19.944Z,1310.00
2023-04-12T13:27:19.955Z,1319.00
2023-04-12T13:28:19.948Z,1330.00
2023-04-12T13:29:19.916Z,1338.00
2023-04-12T13:30:19.969Z,1334.00
2023-04-12T13:31:19.958Z,1328.00
2023-04-12T13:32:20.064Z,1308.00
2023-04-12T13:33:22.180Z,1298.00
2023-04-12T13:34:20.078Z,1294.00
2023-04-12T13:35:20.111Z,1291.00
2023-04-12T13:36:20.199Z,1298.00
2023-04-12T13:37:20.257Z,1303.00
2023-04-12T13:38:20.271Z,1305.00
2023-04-12T13:39:20.364Z,1305.00
2023-04-12T13:40:20.416Z,1305.00
2023-04-12T13:41:20.448Z,1309.00
2023-04-12T13:42:20.488Z,1311.00
2023-04-12T13:43:20.549Z,1310.00
2023-04-12T13:44:20.576Z,1308.00
2023-04-12T13:45:20.588Z,1307.00
2023-04-12T13:46:20.665Z,1304.00
2023-04-12T13:47:20.651Z,1301.00
2023-04-12T13:48:20.695Z,1297.00
2023-04-12T13:49:20.759Z,1027.00
2023-04-12T13:50:20.643Z,868.00
2023-04-12T13:51:20.659Z,782.00
2023-04-12T13:52:20.648Z,820.00
2023-04-12T13:53:20.667Z,885.00
2023-04-12T13:54:20.743Z,1010.00
2023-04-12T13:55:20.684Z,1012.00
2023-04-12T13:56:20.772Z,993.00
2023-04-12T13:57:20.719Z,958.00
2023-04-12T13:58:20.794Z,876.00
2023-04-12T13:59:20.713Z,894.00
2023-04-12T14:00:20.729Z,907.00
2023-04-12T14:01:20.827Z,934.00
2023-04-12T14:02:20.821Z,866.00
2023-04-12T14:03:20.836Z,843.00
2023-04-12T14:04:20.771Z,782.00
2023-04-12T14:05:20.756Z,805.00
2023-04-12T14:06:20.784Z,940.00
2023-04-12T14:07:20.765Z,829.00
2023-04-12T14:08:20.758Z,901.00
2023-04-12T14:09:20.796Z,931.00
2023-04-12T14:10:20.816Z,942.00
2023-04-12T14:11:20.778Z,936.00
2023-04-12T14:12:20.808Z,788.00
2023-04-12T14:13:20.796Z,777.00
2023-04-12T14:14:20.787Z,786.00
2023-04-12T14:15:20.800Z,818.00
2023-04-12T14:16:20.783Z,734.00
2023-04-12T14:17:20.928Z,746.00
2023-04-12T14:18:20.827Z,743.00
2023-04-12T14:19:20.822Z,735.00
2023-04-12T14:20:20.855Z,737.00
2023-04-12T14:21:20.809Z,739.00
2023-04-12T14:22:20.975Z,784.00
2023-04-12T14:23:20.903Z,801.00
2023-04-12T14:24:20.869Z,824.00
2023-04-12T14:25:20.860Z,818.00
2023-04-12T14:26:20.885Z,830.00
2023-04-12T14:27:20.922Z,825.00
2023-04-12T14:28:20.925Z,829.00
2023-04-12T14:29:20.890Z,780.00
2023-04-12T14:30:20.925Z,790.00
2023-04-12T14:31:20.966Z,756.00
2023-04-12T14:32:21.004Z,762.00
2023-04-12T14:33:20.935Z,781.00
2023-04-12T14:34:21.019Z,801.00
2023-04-12T14:35:20.977Z,823.00
2023-04-12T14:36:20.949Z,811.00
2023-04-12T14:37:20.941Z,808.00
2023-04-12T14:38:20.970Z,817.00
2023-04-12T14:39:20.985Z,808.00
2023-04-12T14:40:20.982Z,773.00
2023-04-12T14:41:21.020Z,782.00
2023-04-12T14:42:20.992Z,775.00
2023-04-12T14:43:21.059Z,778.00
2023-04-12T14:44:21.952Z,769.00
2023-04-12T14:45:21.075Z,768.00
2023-04-12T14:46:21.119Z,810.00
2023-04-12T14:47:21.048Z,864.00
2023-04-12T14:48:21.072Z,852.00
2023-04-12T14:49:20.995Z,850.00
2023-04-12T14:50:20.984Z,855.00
2023-04-12T14:51:20.974Z,863.00
2023-04-12T14:52:20.970Z,886.00
2023-04-12T14:53:20.971Z,906.00
2023-04-12T14:54:20.973Z,904.00
2023-04-12T14:55:20.963Z,888.00
2023-04-12T14:56:23.791Z,881.00
2023-04-12T14:57:20.942Z,873.00
2023-04-12T14:58:20.986Z,893.00
2023-04-12T14:59:20.974Z,889.00
2023-04-12T15:00:20.909Z,875.00
2023-04-12T15:01:20.972Z,851.00
2023-04-12T15:02:23.798Z,853.00
2023-04-12T15:03:21.361Z,849.00
2023-04-12T15:04:21.029Z,841.00
2023-04-12T15:05:20.983Z,838.00
2023-04-12T15:06:20.888Z,840.00
2023-04-12T15:07:20.920Z,835.00
2023-04-12T15:08:20.921Z,827.00
2023-04-12T15:09:20.901Z,817.00
2023-04-12T15:10:20.849Z,810.00
2023-04-12T15:11:20.861Z,815.00
2023-04-12T15:12:20.840Z,823.00
2023-04-12T15:13:23.555Z,826.00
2023-04-12T15:14:21.053Z,824.00
2023-04-12T15:15:20.831Z,823.00
2023-04-12T15:16:20.871Z,825.00
2023-04-12T15:17:20.852Z,828.00
2023-04-12T15:18:20.833Z,829.00
2023-04-12T15:19:22.959Z,831.00
2023-04-12T15:20:20.808Z,832.00
2023-04-12T15:21:20.802Z,834.00
2023-04-12T15:22:20.821Z,834.00
2023-04-12T15:23:20.859Z,835.00
2023-04-12T15:24:21.052Z,835.00
2023-04-12T15:25:20.849Z,833.00
2023-04-12T15:26:20.884Z,836.00
2023-04-12T15:27:20.891Z,836.00
2023-04-12T15:28:20.891Z,839.00
2023-04-12T15:29:20.947Z,839.00
2023-04-12T15:30:21.066Z,840.00
2023-04-12T15:31:20.983Z,839.00
2023-04-12T15:32:21.377Z,838.00
2023-04-12T15:33:21.029Z,836.00
2023-04-12T15:34:20.965Z,834.00
2023-04-12T15:35:26.559Z,833.00
2023-04-12T15:36:21.975Z,835.00
2023-04-12T15:37:21.010Z,835.00
2023-04-12T15:38:23.565Z,835.00
2023-04-12T15:39:20.946Z,834.00
2023-04-12T15:52:13.651Z,846.00
2023-04-12T15:53:13.454Z,842.00
2023-04-12T15:54:13.666Z,841.00
2023-04-12T15:55:13.672Z,838.00
2023-04-12T15:56:13.466Z,837.00
2023-04-12T15:57:13.442Z,838.00
2023-04-12T15:58:13.480Z,837.00
2023-04-12T15:59:13.418Z,837.00
2023-04-12T16:00:13.446Z,836.00
2023-04-12T16:01:13.423Z,837.00
2023-04-12T16:02:13.581Z,837.00
2023-04-12T16:03:13.492Z,835.00
2023-04-12T16:04:13.457Z,837.00
2023-04-12T16:05:13.379Z,837.00
2023-04-12T16:06:13.386Z,838.00
2023-04-12T16:07:13.373Z,838.00
2023-04-12T16:08:13.396Z,836.00
2023-04-12T16:09:13.351Z,835.00
2023-04-12T16:10:13.377Z,835.00
2023-04-12T16:11:13.346Z,833.00
2023-04-12T16:12:13.355Z,833.00
2023-04-12T16:13:13.324Z,835.00
2023-04-12T16:14:13.349Z,834.00
2023-04-12T16:15:13.361Z,833.00
2023-04-12T16:16:13.452Z,834.00
2023-04-12T16:17:13.294Z,832.00
2023-04-12T16:18:13.377Z,833.00
2023-04-12T16:19:13.296Z,833.00
2023-04-12T16:20:13.302Z,834.00
2023-04-12T16:21:13.268Z,833.00
2023-04-12T16:22:13.315Z,832.00
2023-04-12T16:23:13.263Z,832.00
2023-04-12T16:24:13.271Z,833.00
2023-04-12T16:25:13.272Z,833.00
2023-04-12T16:26:13.254Z,833.00
2023-04-12T16:27:13.244Z,837.00
2023-04-12T16:28:13.231Z,840.00
2023-04-12T16:29:13.241Z,841.00
2023-04-12T16:30:13.211Z,843.00
2023-04-12T16:31:13.338Z,843.00
2023-04-12T16:32:13.262Z,842.00
2023-04-12T16:33:13.188Z,843.00
2023-04-12T16:34:13.733Z,843.00
2023-04-12T16:35:13.175Z,845.00
2023-04-12T16:36:13.180Z,843.00
2023-04-12T16:37:13.208Z,842.00
2023-04-12T16:38:13.508Z,842.00
2023-04-12T16:39:13.297Z,842.00
2023-04-12T16:40:13.326Z,845.00
2023-04-12T16:41:13.365Z,845.00
2023-04-12T16:42:13.412Z,842.00
2023-04-12T16:43:13.488Z,840.00
2023-04-12T16:44:13.504Z,841.00
2023-04-12T16:45:13.577Z,839.00
2023-04-12T16:46:13.648Z,838.00
2023-04-12T16:47:13.725Z,835.00
2023-04-12T16:48:13.749Z,837.00
2023-04-12T16:49:13.772Z,836.00
2023-04-12T16:50:13.911Z,836.00
2023-04-12T16:51:13.910Z,836.00
2023-04-12T16:52:13.932Z,838.00
2023-04-12T16:53:13.984Z,840.00
2023-04-12T16:54:14.041Z,839.00
2023-04-12T16:55:14.209Z,836.00
2023-04-12T16:56:14.185Z,834.00
2023-04-12T16:57:14.230Z,834.00
2023-04-12T16:58:14.284Z,835.00
2023-04-12T16:59:14.336Z,835.00
2023-04-12T17:00:14.408Z,837.00
2023-04-12T17:02:14.541Z,838.00
2023-04-12T17:03:14.649Z,838.00
2023-04-12T17:04:14.728Z,838.00
2023-04-12T17:05:14.701Z,837.00
2023-04-12T17:06:14.793Z,837.00
2023-04-12T17:07:14.849Z,834.00
2023-04-12T17:08:14.880Z,835.00
2023-04-12T17:09:15.019Z,835.00
2023-04-12T17:10:15.017Z,836.00
2023-04-12T17:11:15.123Z,835.00
2023-04-12T17:12:15.152Z,834.00
2023-04-12T17:13:16.170Z,834.00
2023-04-12T17:14:15.294Z,832.00
2023-04-12T17:15:15.687Z,832.00
2023-04-12T17:16:15.440Z,830.00
2023-04-12T17:17:15.459Z,829.00
2023-04-12T17:18:15.621Z,827.00
2023-04-12T17:19:15.566Z,826.00
2023-04-12T17:20:15.653Z,822.00
2023-04-12T17:21:15.711Z,823.00
2023-04-12T17:22:15.737Z,823.00
2023-04-12T17:23:15.870Z,825.00
2023-04-12T17:24:15.833Z,826.00
2023-04-12T17:25:16.810Z,824.00
2023-04-12T17:26:15.941Z,824.00
2023-04-12T17:27:15.974Z,824.00
2023-04-12T17:28:16.083Z,823.00
2023-04-12T17:29:16.050Z,822.00
2023-04-12T17:30:16.126Z,823.00
2023-04-12T17:31:16.176Z,824.00
2023-04-12T17:32:16.196Z,825.00
2023-04-12T17:33:16.232Z,821.00
2023-04-12T17:34:16.303Z,819.00
2023-04-12T17:35:16.362Z,821.00
2023-04-12T17:36:16.391Z,824.00
2023-04-12T17:37:16.491Z,822.00
2023-04-12T17:38:16.506Z,825.00
2023-04-12T17:39:16.575Z,826.00
2023-04-12T17:40:16.681Z,824.00
2023-04-12T17:41:16.699Z,825.00
2023-04-12T17:42:16.772Z,825.00
2023-04-12T17:43:16.802Z,826.00
2023-04-12T17:44:16.873Z,826.00
2023-04-12T17:45:16.928Z,825.00
2023-04-12T17:46:17.029Z,824.00
2023-04-12T17:47:17.073Z,822.00
2023-04-12T17:48:17.151Z,822.00
2023-04-12T17:49:17.175Z,824.00
2023-04-12T17:50:17.208Z,822.00
2023-04-12T17:51:17.219Z,821.00
2023-04-12T17:52:17.247Z,821.00
2023-04-12T17:53:17.244Z,819.00
2023-04-12T17:54:17.255Z,819.00
2023-04-12T17:55:17.285Z,816.00
2023-04-12T17:56:17.272Z,812.00
2023-04-12T17:57:17.321Z,809.00
2023-04-12T17:58:17.308Z,809.00
2023-04-12T17:59:17.311Z,808.00
2023-04-12T18:00:17.697Z,812.00
2023-04-12T18:01:17.392Z,814.00
2023-04-12T18:02:17.489Z,812.00
2023-04-12T18:03:17.473Z,817.00
2023-04-12T18:04:17.474Z,818.00
2023-04-12T18:05:17.355Z,817.00
2023-04-12T18:06:17.332Z,818.00
2023-04-12T18:07:17.346Z,817.00
2023-04-12T18:08:17.344Z,815.00
2023-04-12T18:09:17.374Z,816.00
2023-04-12T18:10:19.685Z,815.00
2023-04-12T18:11:17.383Z,814.00
2023-04-12T18:12:17.387Z,813.00
2023-04-12T18:13:17.390Z,813.00
2023-04-12T18:14:17.381Z,813.00
2023-04-12T18:15:17.388Z,816.00
2023-04-12T18:16:17.381Z,817.00
2023-04-12T18:17:17.352Z,815.00
2023-04-12T18:18:17.362Z,810.00
2023-04-12T18:19:17.365Z,813.00
2023-04-12T18:20:17.366Z,812.00
2023-04-12T18:21:17.303Z,812.00
2023-04-12T18:22:17.327Z,810.00
2023-04-12T18:23:17.299Z,814.00
2023-04-12T18:24:17.310Z,814.00
2023-04-12T18:25:17.342Z,814.00
2023-04-12T18:26:17.278Z,815.00
2023-04-12T18:27:17.273Z,816.00
2023-04-12T18:28:17.267Z,815.00
2023-04-12T18:29:17.248Z,811.00
2023-04-12T18:30:17.261Z,811.00
2023-04-12T18:31:17.302Z,812.00
2023-04-12T18:32:17.249Z,810.00
2023-04-12T18:33:17.223Z,812.00
2023-04-12T18:34:17.220Z,808.00
2023-04-12T18:35:17.260Z,806.00
2023-04-12T18:36:17.208Z,809.00
2023-04-12T18:37:17.194Z,811.00
2023-04-12T18:38:17.199Z,814.00
2023-04-12T18:39:17.187Z,816.00
2023-04-12T18:40:17.189Z,819.00
2023-04-12T18:41:17.200Z,821.00
2023-04-12T18:42:17.193Z,824.00
2023-04-12T18:43:17.158Z,821.00
2023-04-12T18:44:17.150Z,819.00
2023-04-12T18:45:17.140Z,819.00
2023-04-12T18:46:17.161Z,818.00
2023-04-12T18:47:17.150Z,819.00
2023-04-12T18:48:17.119Z,817.00
2023-04-12T18:49:17.131Z,817.00
2023-04-12T18:50:17.140Z,817.00
2023-04-12T18:51:17.121Z,817.00
2023-04-12T18:52:17.120Z,816.00
2023-04-12T18:53:17.084Z,816.00
2023-04-12T18:54:17.076Z,815.00
2023-04-12T18:55:17.077Z,815.00
2023-04-12T18:56:18.436Z,814.00
2023-04-12T18:57:17.074Z,811.00
2023-04-12T18:58:17.050Z,810.00
2023-04-12T18:59:17.090Z,808.00
2023-04-12T19:00:17.038Z,808.00
2023-04-12T19:01:17.069Z,807.00
2023-04-12T19:02:17.051Z,810.00
2023-04-12T19:03:17.121Z,811.00
2023-04-12T19:04:17.158Z,812.00
2023-04-12T19:05:17.010Z,812.00
2023-04-12T19:06:17.078Z,808.00
2023-04-12T19:07:16.993Z,809.00
2023-04-12T19:08:17.011Z,811.00
2023-04-12T19:09:16.970Z,810.00
2023-04-12T19:10:16.969Z,813.00
2023-04-12T19:11:16.961Z,811.00
2023-04-12T19:12:16.970Z,812.00
2023-04-12T19:13:16.941Z,812.00
2023-04-12T19:14:16.963Z,814.00
2023-04-12T19:15:16.907Z,816.00
2023-04-12T19:16:17.001Z,814.00
2023-04-12T19:17:16.909Z,815.00
2023-04-12T19:18:16.928Z,812.00
2023-04-12T19:19:16.904Z,811.00
2023-04-12T19:20:16.891Z,811.00
2023-04-12T19:21:16.875Z,808.00
2023-04-12T19:22:16.880Z,809.00
2023-04-12T19:23:16.859Z,813.00
2023-04-12T19:24:16.840Z,815.00
2023-04-12T19:25:19.516Z,814.00
2023-04-12T19:26:16.848Z,812.00
2023-04-12T19:27:16.818Z,813.00
2023-04-12T19:28:16.864Z,813.00
2023-04-12T19:29:16.816Z,813.00
2023-04-12T19:30:16.808Z,814.00
2023-04-12T19:31:16.830Z,814.00
2023-04-12T19:32:16.822Z,813.00
2023-04-12T19:33:16.785Z,812.00
2023-04-12T19:34:17.671Z,814.00
2023-04-12T19:35:16.784Z,811.00
2023-04-12T19:36:16.799Z,810.00
2023-04-12T19:37:16.776Z,811.00
2023-04-12T19:38:16.759Z,813.00
2023-04-12T19:39:16.765Z,812.00
2023-04-12T19:40:16.777Z,812.00
2023-04-12T19:41:16.792Z,811.00
2023-04-12T19:42:16.758Z,810.00
2023-04-12T19:43:16.738Z,811.00
2023-04-12T19:44:16.745Z,814.00
2023-04-12T19:45:16.724Z,814.00
2023-04-12T19:46:16.803Z,813.00
2023-04-12T19:47:16.704Z,812.00
2023-04-12T19:48:16.719Z,813.00
2023-04-12T19:49:16.687Z,809.00
2023-04-12T19:50:16.713Z,809.00
2023-04-12T19:51:16.683Z,809.00
2023-04-12T19:52:16.679Z,810.00
2023-04-12T19:53:16.651Z,814.00
2023-04-12T19:54:16.667Z,814.00
2023-04-12T19:55:16.704Z,811.00
2023-04-12T19:56:16.665Z,813.00
2023-04-12T19:57:16.625Z,810.00
2023-04-12T19:58:16.618Z,812.00
2023-04-12T19:59:16.617Z,814.00
2023-04-12T20:00:16.638Z,812.00
2023-04-12T20:01:16.667Z,812.00
2023-04-12T20:02:16.735Z,812.00
2023-04-12T20:03:16.632Z,812.00
2023-04-12T20:04:16.643Z,812.00
2023-04-12T20:05:16.579Z,814.00
2023-04-12T20:06:16.626Z,815.00
2023-04-12T20:07:16.620Z,817.00
2023-04-12T20:08:16.577Z,816.00
2023-04-12T20:09:16.537Z,821.00
2023-04-12T20:10:16.549Z,820.00
2023-04-12T20:11:16.582Z,819.00
2023-04-12T20:12:16.514Z,819.00
2023-04-12T20:13:16.518Z,822.00
2023-04-12T20:14:16.504Z,819.00
2023-04-12T20:15:16.532Z,818.00
2023-04-12T20:16:16.568Z,815.00
2023-04-12T20:17:16.479Z,816.00
2023-04-12T20:18:16.479Z,816.00
2023-04-12T20:19:16.483Z,818.00
2023-04-12T20:20:16.501Z,818.00
2023-04-12T20:21:16.466Z,820.00
2023-04-12T20:22:16.547Z,820.00
2023-04-12T20:23:16.452Z,818.00
2023-04-12T20:24:16.446Z,817.00
2023-04-12T20:25:16.418Z,819.00
2023-04-12T20:26:16.453Z,819.00
2023-04-12T20:27:16.416Z,820.00
2023-04-12T20:28:16.410Z,820.00
2023-04-12T20:29:16.413Z,820.00
2023-04-12T20:30:16.420Z,819.00
2023-04-12T20:31:16.506Z,818.00
2023-04-12T20:32:16.410Z,817.00
2023-04-12T20:33:16.373Z,818.00
2023-04-12T20:34:16.401Z,817.00
2023-04-12T20:35:16.371Z,815.00
2023-04-12T20:36:16.358Z,816.00
2023-04-12T20:37:16.351Z,815.00
2023-04-12T20:38:16.395Z,815.00
2023-04-12T20:39:16.356Z,812.00
2023-04-12T20:40:16.383Z,811.00
2023-04-12T20:41:16.317Z,809.00
2023-04-12T20:42:16.327Z,810.00
2023-04-12T20:43:16.318Z,809.00
2023-04-12T20:44:16.326Z,810.00
2023-04-12T20:45:16.289Z,813.00
2023-04-12T20:46:16.346Z,812.00
2023-04-12T20:47:16.260Z,812.00
2023-04-12T20:48:16.436Z,814.00
2023-04-12T20:49:16.262Z,813.00
2023-04-12T20:50:16.299Z,813.00
2023-04-12T20:51:16.266Z,812.00
2023-04-12T20:52:16.245Z,811.00
2023-04-12T20:53:16.238Z,809.00
2023-04-12T20:54:16.228Z,810.00
2023-04-12T20:55:16.221Z,812.00
2023-04-12T20:56:16.266Z,811.00
2023-04-12T20:57:16.205Z,813.00
2023-04-12T20:58:16.263Z,815.00
2023-04-12T20:59:16.221Z,814.00
2023-04-12T21:00:16.310Z,814.00
2023-04-12T21:01:16.370Z,815.00
2023-04-12T21:02:16.600Z,813.00
2023-04-12T21:03:16.470Z,814.00
2023-04-12T21:04:16.383Z,811.00
2023-04-12T21:05:16.347Z,813.00
2023-04-12T21:06:16.361Z,814.00
2023-04-12T21:07:16.348Z,814.00
2023-04-12T21:08:16.372Z,812.00
2023-04-12T21:09:16.417Z,812.00
2023-04-12T21:10:16.444Z,815.00
2023-04-12T21:11:16.472Z,815.00
2023-04-12T21:12:16.438Z,816.00
2023-04-12T21:13:16.504Z,816.00
2023-04-12T21:14:16.451Z,816.00
2023-04-12T21:15:16.435Z,816.00
2023-04-12T21:16:16.506Z,816.00
2023-04-12T21:17:16.494Z,814.00
2023-04-12T21:18:16.534Z,816.00
2023-04-12T21:19:16.536Z,820.00
2023-04-12T21:20:16.587Z,819.00
2023-04-12T21:21:16.565Z,820.00
2023-04-12T21:22:16.602Z,821.00
2023-04-12T21:23:16.645Z,822.00
2023-04-12T21:24:16.689Z,823.00
2023-04-12T21:25:16.987Z,824.00
2023-04-12T21:26:16.684Z,822.00
2023-04-12T21:27:16.686Z,821.00
2023-04-12T21:28:16.711Z,823.00
2023-04-12T21:29:16.741Z,825.00
2023-04-12T21:30:16.770Z,826.00
2023-04-12T21:31:16.848Z,825.00
2023-04-12T21:32:16.791Z,825.00
2023-04-12T21:33:16.804Z,822.00
2023-04-12T21:34:16.826Z,820.00
2023-04-12T21:35:16.818Z,822.00
2023-04-12T21:36:16.826Z,824.00
2023-04-12T21:37:16.850Z,824.00
2023-04-12T21:38:16.858Z,824.00
2023-04-12T21:39:16.870Z,823.00
2023-04-12T21:40:16.891Z,823.00
2023-04-12T21:41:16.910Z,823.00
2023-04-12T21:42:16.934Z,826.00
2023-04-12T21:43:16.954Z,824.00
2023-04-12T21:44:16.976Z,826.00
2023-04-12T21:45:16.993Z,826.00
2023-04-12T21:46:17.070Z,825.00
2023-04-12T21:47:17.044Z,827.00
2023-04-12T21:48:17.092Z,826.00
2023-04-12T21:49:17.088Z,826.00
2023-04-12T21:50:17.127Z,827.00
2023-04-12T21:51:17.123Z,825.00
2023-04-12T21:52:17.130Z,821.00
2023-04-12T21:53:17.159Z,821.00
2023-04-12T21:54:17.195Z,819.00
2023-04-12T21:55:17.207Z,817.00
2023-04-12T21:56:17.239Z,817.00
2023-04-12T21:57:17.264Z,818.00
2023-04-12T21:58:17.272Z,822.00
2023-04-12T21:59:17.286Z,823.00
2023-04-12T22:00:17.308Z,823.00
2023-04-12T22:01:17.374Z,821.00
2023-04-12T22:02:17.397Z,817.00
2023-04-12T22:03:17.474Z,819.00
2023-04-12T22:04:17.394Z,816.00
2023-04-12T22:05:17.407Z,816.00
2023-04-12T22:06:17.439Z,815.00
2023-04-12T22:07:17.480Z,815.00
2023-04-12T22:08:17.495Z,814.00
2023-04-12T22:09:17.475Z,816.00
2023-04-12T22:10:17.496Z,816.00
2023-04-12T22:11:17.515Z,814.00
2023-04-12T22:12:17.552Z,814.00
2023-04-12T22:13:17.553Z,812.00
2023-04-12T22:14:17.572Z,811.00
2023-04-12T22:15:17.614Z,808.00
2023-04-12T22:16:17.679Z,809.00
2023-04-12T22:17:17.691Z,812.00
2023-04-12T22:18:19.330Z,812.00
2023-04-12T22:19:17.631Z,812.00
2023-04-12T22:20:17.632Z,814.00
2023-04-12T22:21:17.697Z,816.00
2023-04-12T22:22:17.699Z,817.00
2023-04-12T22:23:17.762Z,818.00
2023-04-12T22:24:17.754Z,820.00
2023-04-12T22:25:17.769Z,818.00
2023-04-12T22:26:17.794Z,821.00
2023-04-12T22:27:17.858Z,820.00
2023-04-12T22:28:17.872Z,823.00
2023-04-12T22:29:17.897Z,820.00
2023-04-12T22:30:17.914Z,821.00
2023-04-12T22:31:17.964Z,820.00
2023-04-12T22:32:17.959Z,821.00
2023-04-12T22:33:17.990Z,821.00
2023-04-12T22:34:18.044Z,818.00
2023-04-12T22:35:18.051Z,817.00
2023-04-12T22:36:18.106Z,818.00
2023-04-12T22:37:18.145Z,820.00
2023-04-12T22:38:18.136Z,823.00
2023-04-12T22:39:18.163Z,823.00
2023-04-12T22:40:18.190Z,821.00
2023-04-12T22:41:18.262Z,821.00
2023-04-12T22:42:18.282Z,821.00
2023-04-12T22:43:18.362Z,820.00
2023-04-12T22:44:18.334Z,819.00
2023-04-12T22:45:18.341Z,820.00
2023-04-12T22:46:18.455Z,819.00
2023-04-12T22:47:18.381Z,819.00
2023-04-12T22:48:18.368Z,821.00
2023-04-12T22:49:18.404Z,820.00
2023-04-12T22:50:18.439Z,822.00
2023-04-12T22:51:18.461Z,823.00
2023-04-12T22:52:18.506Z,821.00
2023-04-12T22:53:18.541Z,819.00
2023-04-12T22:54:18.556Z,819.00
2023-04-12T22:55:18.605Z,816.00
2023-04-12T22:56:18.617Z,817.00
2023-04-12T22:57:18.641Z,816.00
2023-04-12T22:58:18.692Z,818.00
2023-04-12T22:59:18.703Z,820.00
2023-04-12T23:00:18.752Z,820.00
2023-04-12T23:01:18.855Z,816.00
2023-04-12T23:02:18.807Z,816.00
2023-04-12T23:03:18.870Z,818.00
2023-04-12T23:04:18.858Z,818.00
2023-04-12T23:05:18.934Z,818.00
2023-04-12T23:06:18.909Z,816.00
2023-04-12T23:07:18.959Z,819.00
2023-04-12T23:08:18.978Z,820.00
2023-04-12T23:09:19.010Z,821.00
2023-04-12T23:10:19.021Z,817.00
2023-04-12T23:11:19.085Z,815.00
2023-04-12T23:12:19.068Z,815.00
2023-04-12T23:13:19.124Z,816.00
2023-04-12T23:14:19.131Z,816.00
2023-04-12T23:15:19.154Z,818.00
2023-04-12T23:16:19.221Z,817.00
2023-04-12T23:17:19.192Z,817.00
2023-04-12T23:18:19.205Z,816.00
2023-04-12T23:19:19.233Z,816.00
2023-04-12T23:20:19.256Z,816.00
2023-04-12T23:21:19.270Z,817.00
2023-04-12T23:22:19.287Z,817.00
2023-04-12T23:23:19.306Z,814.00
2023-04-12T23:24:19.319Z,815.00
2023-04-12T23:25:19.328Z,819.00
2023-04-12T23:26:19.339Z,819.00
2023-04-12T23:27:19.344Z,820.00
2023-04-12T23:28:19.720Z,816.00
2023-04-12T23:29:19.381Z,814.00
2023-04-12T23:30:19.390Z,813.00
2023-04-12T23:31:19.445Z,816.00
2023-04-12T23:32:19.441Z,813.00
2023-04-12T23:33:19.436Z,815.00
2023-04-12T23:34:19.430Z,815.00
2023-04-12T23:35:19.468Z,816.00
2023-04-12T23:36:19.465Z,817.00
2023-04-12T23:37:19.494Z,816.00
2023-04-12T23:38:19.847Z,817.00
2023-04-12T23:39:19.509Z,817.00
2023-04-12T23:40:19.525Z,817.00
2023-04-12T23:41:19.550Z,815.00
2023-04-12T23:42:19.561Z,817.00
2023-04-12T23:43:19.594Z,817.00
2023-04-12T23:44:19.610Z,817.00
2023-04-12T23:45:19.620Z,816.00
2023-04-12T23:46:19.663Z,813.00
2023-04-12T23:47:19.614Z,813.00
2023-04-12T23:48:19.631Z,814.00
2023-04-12T23:49:19.631Z,813.00
2023-04-12T23:50:19.622Z,816.00
2023-04-12T23:51:19.649Z,816.00
2023-04-12T23:52:19.636Z,813.00
2023-04-12T23:53:19.683Z,812.00
2023-04-12T23:54:19.681Z,814.00
2023-04-12T23:55:19.700Z,814.00
2023-04-12T23:56:19.722Z,814.00
2023-04-12T23:57:19.687Z,813.00
2023-04-12T23:58:19.732Z,813.00
2023-04-12T23:59:19.740Z,813.00
